Flight Information

DEPARTURE
REDDING, CA
Elevation:
504
Runways:
16/34 - 7003x150 - ASPH-G
12/30 - 5067x150 - ASPH-G
ATIS:
124.1
Ground:
121.7
Tower:
REDDING TOWER 119.8
DESTINATION
,
Elevation:
TPA:
1000 (est.)


6837.7 NM68° True-17° Var51° HDG

Flight Plan:
(click to file on line)

1. Type
2. Aircraft Identification
3. Aircraft Type / Special Equipment
4. True Airspeed
kts
5. Departure Airport
(ICAO code)
6. Arriving Airport
(ICAO code)
7. Cruising Altitude
ft
8. Alternate Airport
(ICAO code)
9. Route of Flight
10. Remarks


00:00:00 Departure ATIS: Destination ATIS:

Clearance Limit:
Route:
Altitude: Expect in minutes
Frequency:
Transponder: (7500 Hijack / 7600 Lost Comms / 7700 Emergency)


KRDD 010853Z 32004KT 10SM CLR 09/00 A2999 RMK AO2 SLP153 T00940000 50000
Time: 2020-04-01T08:53:00Z
1585732270
Winds: 320 @ 4 kts
Visibility: 10.0 sm
Clouds (AGL): CLR
Temperature: 9.4 C
Dew Point: 0.0 C
Pressure: 29.991142 in Hgbr


Notes:

Data extracted from FAA Digital Chart Supplement. Effective: 0901Z Thursday, Mar 26, 2020 to 0901Z Thursday, May 21, 2020
Current ATIS data is provided courtisy of PilotEdge.